sensor_id;sensor_type;location;lat;lon;timestamp;temperature;humidity
63094;DHT22;49183;51.380;0.098;2023-07-29T00:01:40;15.50;81.40
63094;DHT22;49183;51.380;0.098;2023-07-29T00:04:11;15.50;81.40
63094;DHT22;49183;51.380;0.098;2023-07-29T00:06:39;15.50;81.50
63094;DHT22;49183;51.380;0.098;2023-07-29T00:12:41;15.40;81.60
63094;DHT22;49183;51.380;0.098;2023-07-29T00:15:08;15.40;81.80
63094;DHT22;49183;51.380;0.098;2023-07-29T00:17:36;15.40;81.80
63094;DHT22;49183;51.380;0.098;2023-07-29T00:20:07;15.30;81.90
63094;DHT22;49183;51.380;0.098;2023-07-29T00:22:35;15.30;82.00
63094;DHT22;49183;51.380;0.098;2023-07-29T00:25:10;15.20;82.10
63094;DHT22;49183;51.380;0.098;2023-07-29T00:27:49;15.20;82.30
63094;DHT22;49183;51.380;0.098;2023-07-29T00:30:21;15.20;82.50
63094;DHT22;49183;51.380;0.098;2023-07-29T00:32:51;15.10;82.60
63094;DHT22;49183;51.380;0.098;2023-07-29T00:35:19;15.10;82.50
63094;DHT22;49183;51.380;0.098;2023-07-29T00:37:46;15.10;82.70
63094;DHT22;49183;51.380;0.098;2023-07-29T00:40:15;15.10;82.90
63094;DHT22;49183;51.380;0.098;2023-07-29T00:42:47;15.10;82.80
63094;DHT22;49183;51.380;0.098;2023-07-29T00:45:20;15.00;82.80
63094;DHT22;49183;51.380;0.098;2023-07-29T00:47:48;15.00;82.80
63094;DHT22;49183;51.380;0.098;2023-07-29T00:50:26;15.10;82.80
63094;DHT22;49183;51.380;0.098;2023-07-29T00:53:01;15.00;82.70
63094;DHT22;49183;51.380;0.098;2023-07-29T00:55:31;15.10;82.70
63094;DHT22;49183;51.380;0.098;2023-07-29T01:00:56;15.00;82.60
63094;DHT22;49183;51.380;0.098;2023-07-29T01:03:24;15.10;82.70
63094;DHT22;49183;51.380;0.098;2023-07-29T01:08:55;15.10;82.70
63094;DHT22;49183;51.380;0.098;2023-07-29T01:14:43;15.10;82.50
63094;DHT22;49183;51.380;0.098;2023-07-29T01:17:15;15.10;82.50
63094;DHT22;49183;51.380;0.098;2023-07-29T01:20:01;15.10;82.50
63094;DHT22;49183;51.380;0.098;2023-07-29T01:22:36;15.10;82.50
63094;DHT22;49183;51.380;0.098;2023-07-29T01:25:10;15.00;82.50
63094;DHT22;49183;51.380;0.098;2023-07-29T01:27:39;15.00;82.60
63094;DHT22;49183;51.380;0.098;2023-07-29T01:30:06;14.90;82.70
63094;DHT22;49183;51.380;0.098;2023-07-29T01:32:50;14.90;82.80
63094;DHT22;49183;51.380;0.098;2023-07-29T01:38:09;14.80;83.00
63094;DHT22;49183;51.380;0.098;2023-07-29T01:40:42;14.80;83.10
63094;DHT22;49183;51.380;0.098;2023-07-29T01:43:11;14.80;83.10
63094;DHT22;49183;51.380;0.098;2023-07-29T01:45:39;14.80;83.10
63094;DHT22;49183;51.380;0.098;2023-07-29T01:48:09;14.80;83.10
63094;DHT22;49183;51.380;0.098;2023-07-29T01:50:39;14.80;83.10
63094;DHT22;49183;51.380;0.098;2023-07-29T01:53:07;14.80;83.20
63094;DHT22;49183;51.380;0.098;2023-07-29T01:55:43;14.70;83.20
63094;DHT22;49183;51.380;0.098;2023-07-29T01:58:46;14.70;83.20
63094;DHT22;49183;51.380;0.098;2023-07-29T02:01:14;14.70;83.20
63094;DHT22;49183;51.380;0.098;2023-07-29T02:03:43;14.60;83.10
63094;DHT22;49183;51.380;0.098;2023-07-29T02:06:10;14.60;83.00
63094;DHT22;49183;51.380;0.098;2023-07-29T02:08:38;14.60;83.00
63094;DHT22;49183;51.380;0.098;2023-07-29T02:11:08;14.50;83.00
63094;DHT22;49183;51.380;0.098;2023-07-29T02:13:35;14.50;83.00
63094;DHT22;49183;51.380;0.098;2023-07-29T02:16:03;14.50;82.90
63094;DHT22;49183;51.380;0.098;2023-07-29T02:18:31;14.40;82.90
63094;DHT22;49183;51.380;0.098;2023-07-29T02:20:58;14.40;82.90
63094;DHT22;49183;51.380;0.098;2023-07-29T02:23:26;14.40;82.80
63094;DHT22;49183;51.380;0.098;2023-07-29T02:25:53;14.40;82.80
63094;DHT22;49183;51.380;0.098;2023-07-29T02:28:21;14.40;82.70
63094;DHT22;49183;51.380;0.098;2023-07-29T02:30:53;14.30;82.70
63094;DHT22;49183;51.380;0.098;2023-07-29T02:33:36;14.30;82.60
63094;DHT22;49183;51.380;0.098;2023-07-29T02:36:03;14.30;82.60
63094;DHT22;49183;51.380;0.098;2023-07-29T02:38:31;14.30;82.60
63094;DHT22;49183;51.380;0.098;2023-07-29T02:40:59;14.30;82.70
63094;DHT22;49183;51.380;0.098;2023-07-29T02:43:26;14.20;82.70
63094;DHT22;49183;51.380;0.098;2023-07-29T02:45:54;14.20;82.80
63094;DHT22;49183;51.380;0.098;2023-07-29T02:48:25;14.20;82.90
63094;DHT22;49183;51.380;0.098;2023-07-29T02:50:53;14.20;82.90
63094;DHT22;49183;51.380;0.098;2023-07-29T02:53:24;14.20;83.00
63094;DHT22;49183;51.380;0.098;2023-07-29T02:55:51;14.20;83.00
63094;DHT22;49183;51.380;0.098;2023-07-29T02:58:20;14.10;83.00
63094;DHT22;49183;51.380;0.098;2023-07-29T03:00:47;14.10;83.10
63094;DHT22;49183;51.380;0.098;2023-07-29T03:03:18;14.10;83.20
63094;DHT22;49183;51.380;0.098;2023-07-29T03:05:47;14.10;83.20
63094;DHT22;49183;51.380;0.098;2023-07-29T03:08:14;14.10;83.40
63094;DHT22;49183;51.380;0.098;2023-07-29T03:10:42;14.10;83.50
63094;DHT22;49183;51.380;0.098;2023-07-29T03:13:09;14.00;83.70
63094;DHT22;49183;51.380;0.098;2023-07-29T03:15:37;14.00;83.90
63094;DHT22;49183;51.380;0.098;2023-07-29T03:18:05;13.90;84.00
63094;DHT22;49183;51.380;0.098;2023-07-29T03:20:32;13.90;84.00
63094;DHT22;49183;51.380;0.098;2023-07-29T03:23:00;13.90;84.20
63094;DHT22;49183;51.380;0.098;2023-07-29T03:25:28;13.90;84.20
63094;DHT22;49183;51.380;0.098;2023-07-29T03:27:56;13.90;84.20
63094;DHT22;49183;51.380;0.098;2023-07-29T03:30:24;13.90;84.20
63094;DHT22;49183;51.380;0.098;2023-07-29T03:32:52;13.90;84.30
63094;DHT22;49183;51.380;0.098;2023-07-29T03:35:20;13.90;84.30
63094;DHT22;49183;51.380;0.098;2023-07-29T03:37:51;13.90;84.40
63094;DHT22;49183;51.380;0.098;2023-07-29T03:40:19;13.90;84.50
63094;DHT22;49183;51.380;0.098;2023-07-29T03:42:46;13.80;84.50
63094;DHT22;49183;51.380;0.098;2023-07-29T03:45:14;13.80;84.60
63094;DHT22;49183;51.380;0.098;2023-07-29T03:47:41;13.80;84.70
63094;DHT22;49183;51.380;0.098;2023-07-29T03:50:09;13.80;84.80
63094;DHT22;49183;51.380;0.098;2023-07-29T03:52:36;13.80;84.80
63094;DHT22;49183;51.380;0.098;2023-07-29T03:55:04;13.80;84.70
63094;DHT22;49183;51.380;0.098;2023-07-29T03:57:32;13.70;84.70
63094;DHT22;49183;51.380;0.098;2023-07-29T03:59:59;13.70;84.80
63094;DHT22;49183;51.380;0.098;2023-07-29T04:02:28;13.60;84.90
63094;DHT22;49183;51.380;0.098;2023-07-29T04:04:56;13.60;84.90
63094;DHT22;49183;51.380;0.098;2023-07-29T04:07:24;13.60;85.00
63094;DHT22;49183;51.380;0.098;2023-07-29T04:09:58;13.50;85.00
63094;DHT22;49183;51.380;0.098;2023-07-29T04:12:26;13.50;85.00
63094;DHT22;49183;51.380;0.098;2023-07-29T04:14:54;13.50;85.00
63094;DHT22;49183;51.380;0.098;2023-07-29T04:17:23;13.60;84.90
63094;DHT22;49183;51.380;0.098;2023-07-29T04:19:59;13.60;85.00
63094;DHT22;49183;51.380;0.098;2023-07-29T04:22:33;13.60;85.00
63094;DHT22;49183;51.380;0.098;2023-07-29T04:25:00;13.60;84.90
63094;DHT22;49183;51.380;0.098;2023-07-29T04:27:28;13.60;84.90
63094;DHT22;49183;51.380;0.098;2023-07-29T04:29:56;13.70;84.90
63094;DHT22;49183;51.380;0.098;2023-07-29T04:32:23;13.60;84.80
63094;DHT22;49183;51.380;0.098;2023-07-29T04:34:51;13.70;84.80
63094;DHT22;49183;51.380;0.098;2023-07-29T04:37:20;13.70;84.90
63094;DHT22;49183;51.380;0.098;2023-07-29T04:39:49;13.70;84.80
63094;DHT22;49183;51.380;0.098;2023-07-29T04:42:16;13.80;85.00
63094;DHT22;49183;51.380;0.098;2023-07-29T04:44:44;13.80;84.90
63094;DHT22;49183;51.380;0.098;2023-07-29T04:47:11;13.80;84.90
63094;DHT22;49183;51.380;0.098;2023-07-29T04:49:39;13.80;84.90
63094;DHT22;49183;51.380;0.098;2023-07-29T04:52:08;13.80;84.90
63094;DHT22;49183;51.380;0.098;2023-07-29T04:54:36;13.80;84.90
63094;DHT22;49183;51.380;0.098;2023-07-29T04:57:03;13.80;84.90
63094;DHT22;49183;51.380;0.098;2023-07-29T04:59:32;13.80;85.00
63094;DHT22;49183;51.380;0.098;2023-07-29T05:02:00;13.90;85.10
63094;DHT22;49183;51.380;0.098;2023-07-29T05:04:28;13.90;85.10
63094;DHT22;49183;51.380;0.098;2023-07-29T05:06:55;13.90;85.20
63094;DHT22;49183;51.380;0.098;2023-07-29T05:09:23;13.90;85.10
63094;DHT22;49183;51.380;0.098;2023-07-29T05:11:53;13.90;85.20
63094;DHT22;49183;51.380;0.098;2023-07-29T05:14:20;13.90;85.20
63094;DHT22;49183;51.380;0.098;2023-07-29T05:16:48;13.90;85.30
63094;DHT22;49183;51.380;0.098;2023-07-29T05:19:16;13.90;85.30
63094;DHT22;49183;51.380;0.098;2023-07-29T05:21:51;13.80;85.30
63094;DHT22;49183;51.380;0.098;2023-07-29T05:24:18;13.90;85.40
63094;DHT22;49183;51.380;0.098;2023-07-29T05:26:46;13.90;85.50
63094;DHT22;49183;51.380;0.098;2023-07-29T05:29:13;13.90;85.50
63094;DHT22;49183;51.380;0.098;2023-07-29T05:31:41;13.90;85.50
63094;DHT22;49183;51.380;0.098;2023-07-29T05:34:09;14.00;85.50
63094;DHT22;49183;51.380;0.098;2023-07-29T05:36:37;14.10;85.50
63094;DHT22;49183;51.380;0.098;2023-07-29T05:39:05;14.30;85.40
63094;DHT22;49183;51.380;0.098;2023-07-29T05:41:32;14.30;85.40
63094;DHT22;49183;51.380;0.098;2023-07-29T05:44:01;14.30;85.30
63094;DHT22;49183;51.380;0.098;2023-07-29T05:46:28;14.30;85.40
63094;DHT22;49183;51.380;0.098;2023-07-29T05:48:56;14.30;85.60
63094;DHT22;49183;51.380;0.098;2023-07-29T05:51:23;14.40;85.50
63094;DHT22;49183;51.380;0.098;2023-07-29T05:53:51;14.40;85.50
63094;DHT22;49183;51.380;0.098;2023-07-29T05:56:18;14.40;85.30
63094;DHT22;49183;51.380;0.098;2023-07-29T05:58:46;14.40;85.30
63094;DHT22;49183;51.380;0.098;2023-07-29T06:01:14;14.40;85.30
63094;DHT22;49183;51.380;0.098;2023-07-29T06:03:41;14.40;85.30
63094;DHT22;49183;51.380;0.098;2023-07-29T06:06:09;14.50;85.60
63094;DHT22;49183;51.380;0.098;2023-07-29T06:08:37;14.70;85.60
63094;DHT22;49183;51.380;0.098;2023-07-29T06:11:04;14.90;85.40
63094;DHT22;49183;51.380;0.098;2023-07-29T06:13:33;15.00;85.10
63094;DHT22;49183;51.380;0.098;2023-07-29T06:16:01;15.10;84.80
63094;DHT22;49183;51.380;0.098;2023-07-29T06:18:28;15.20;84.60
63094;DHT22;49183;51.380;0.098;2023-07-29T06:20:56;15.20;84.50
63094;DHT22;49183;51.380;0.098;2023-07-29T06:23:24;15.30;84.40
63094;DHT22;49183;51.380;0.098;2023-07-29T06:25:52;15.30;84.30
63094;DHT22;49183;51.380;0.098;2023-07-29T06:28:19;15.30;84.20
63094;DHT22;49183;51.380;0.098;2023-07-29T06:30:47;15.40;84.10
63094;DHT22;49183;51.380;0.098;2023-07-29T06:33:15;15.50;84.00
63094;DHT22;49183;51.380;0.098;2023-07-29T06:35:42;15.60;83.80
63094;DHT22;49183;51.380;0.098;2023-07-29T06:38:18;15.60;83.60
63094;DHT22;49183;51.380;0.098;2023-07-29T06:40:49;15.60;83.50
63094;DHT22;49183;51.380;0.098;2023-07-29T06:43:17;15.70;83.50
63094;DHT22;49183;51.380;0.098;2023-07-29T06:45:44;15.80;83.50
63094;DHT22;49183;51.380;0.098;2023-07-29T06:48:11;15.80;83.30
63094;DHT22;49183;51.380;0.098;2023-07-29T06:50:41;15.80;83.20
63094;DHT22;49183;51.380;0.098;2023-07-29T06:53:09;16.00;83.10
63094;DHT22;49183;51.380;0.098;2023-07-29T06:55:36;16.00;83.00
63094;DHT22;49183;51.380;0.098;2023-07-29T06:58:04;16.10;82.80
63094;DHT22;49183;51.380;0.098;2023-07-29T07:00:36;16.10;82.70
63094;DHT22;49183;51.380;0.098;2023-07-29T07:03:04;16.10;82.70
63094;DHT22;49183;51.380;0.098;2023-07-29T07:05:32;16.20;82.70
63094;DHT22;49183;51.380;0.098;2023-07-29T07:07:59;16.20;82.50
63094;DHT22;49183;51.380;0.098;2023-07-29T07:10:27;16.30;82.40
63094;DHT22;49183;51.380;0.098;2023-07-29T07:12:54;16.40;82.50
63094;DHT22;49183;51.380;0.098;2023-07-29T07:15:22;16.60;82.40
63094;DHT22;49183;51.380;0.098;2023-07-29T07:17:50;16.80;82.00
63094;DHT22;49183;51.380;0.098;2023-07-29T07:20:22;16.90;81.60
63094;DHT22;49183;51.380;0.098;2023-07-29T07:22:49;17.00;81.00
63094;DHT22;49183;51.380;0.098;2023-07-29T07:25:17;17.00;80.70
63094;DHT22;49183;51.380;0.098;2023-07-29T07:27:44;16.90;80.30
63094;DHT22;49183;51.380;0.098;2023-07-29T07:30:12;16.80;80.20
63094;DHT22;49183;51.380;0.098;2023-07-29T07:32:39;16.90;80.20
63094;DHT22;49183;51.380;0.098;2023-07-29T07:35:07;16.90;80.20
63094;DHT22;49183;51.380;0.098;2023-07-29T07:37:34;17.00;80.00
63094;DHT22;49183;51.380;0.098;2023-07-29T07:40:02;17.30;79.80
63094;DHT22;49183;51.380;0.098;2023-07-29T07:42:30;17.30;79.40
63094;DHT22;49183;51.380;0.098;2023-07-29T07:44:58;17.40;79.10
63094;DHT22;49183;51.380;0.098;2023-07-29T07:47:25;17.40;78.70
63094;DHT22;49183;51.380;0.098;2023-07-29T07:49:53;17.50;78.50
63094;DHT22;49183;51.380;0.098;2023-07-29T07:52:20;17.50;78.30
63094;DHT22;49183;51.380;0.098;2023-07-29T07:54:52;17.50;78.10
63094;DHT22;49183;51.380;0.098;2023-07-29T07:57:21;17.50;78.20
63094;DHT22;49183;51.380;0.098;2023-07-29T08:02:39;17.60;78.30
63094;DHT22;49183;51.380;0.098;2023-07-29T08:05:07;17.80;78.20
63094;DHT22;49183;51.380;0.098;2023-07-29T08:07:35;17.80;78.00
63094;DHT22;49183;51.380;0.098;2023-07-29T08:10:03;17.80;77.40
63094;DHT22;49183;51.380;0.098;2023-07-29T08:12:31;17.70;77.20
63094;DHT22;49183;51.380;0.098;2023-07-29T08:14:58;17.50;77.40
63094;DHT22;49183;51.380;0.098;2023-07-29T08:17:26;17.40;77.70
63094;DHT22;49183;51.380;0.098;2023-07-29T08:20:09;17.30;77.80
63094;DHT22;49183;51.380;0.098;2023-07-29T08:22:37;17.40;77.80
63094;DHT22;49183;51.380;0.098;2023-07-29T08:25:05;17.60;77.80
63094;DHT22;49183;51.380;0.098;2023-07-29T08:27:33;17.90;77.60
63094;DHT22;49183;51.380;0.098;2023-07-29T08:30:01;18.30;77.00
63094;DHT22;49183;51.380;0.098;2023-07-29T08:32:29;18.50;76.10
63094;DHT22;49183;51.380;0.098;2023-07-29T08:34:57;18.70;74.50
63094;DHT22;49183;51.380;0.098;2023-07-29T08:37:24;18.80;73.90
63094;DHT22;49183;51.380;0.098;2023-07-29T08:39:54;19.10;73.20
63094;DHT22;49183;51.380;0.098;2023-07-29T08:42:22;19.30;72.10
63094;DHT22;49183;51.380;0.098;2023-07-29T08:44:50;19.30;71.50
63094;DHT22;49183;51.380;0.098;2023-07-29T08:47:18;19.50;70.70
63094;DHT22;49183;51.380;0.098;2023-07-29T08:49:46;19.60;68.00
63094;DHT22;49183;51.380;0.098;2023-07-29T08:52:14;19.40;66.70
63094;DHT22;49183;51.380;0.098;2023-07-29T08:54:42;19.30;67.40
63094;DHT22;49183;51.380;0.098;2023-07-29T08:57:10;19.30;68.00
63094;DHT22;49183;51.380;0.098;2023-07-29T09:02:51;19.90;68.60
63094;DHT22;49183;51.380;0.098;2023-07-29T09:05:20;20.40;67.30
63094;DHT22;49183;51.380;0.098;2023-07-29T09:07:49;20.70;65.70
63094;DHT22;49183;51.380;0.098;2023-07-29T09:10:21;20.70;64.70
63094;DHT22;49183;51.380;0.098;2023-07-29T09:12:50;20.60;63.80
63094;DHT22;49183;51.380;0.098;2023-07-29T09:15:30;20.50;64.10
63094;DHT22;49183;51.380;0.098;2023-07-29T09:18:17;20.30;64.50
63094;DHT22;49183;51.380;0.098;2023-07-29T09:20:50;20.10;64.40
63094;DHT22;49183;51.380;0.098;2023-07-29T09:23:43;19.90;64.90
63094;DHT22;49183;51.380;0.098;2023-07-29T09:26:11;19.70;64.40
63094;DHT22;49183;51.380;0.098;2023-07-29T09:28:39;19.50;64.10
63094;DHT22;49183;51.380;0.098;2023-07-29T09:31:13;19.20;62.80
63094;DHT22;49183;51.380;0.098;2023-07-29T09:33:46;18.60;63.40
63094;DHT22;49183;51.380;0.098;2023-07-29T09:36:13;17.80;65.80
63094;DHT22;49183;51.380;0.098;2023-07-29T09:38:41;17.30;67.70
63094;DHT22;49183;51.380;0.098;2023-07-29T09:41:09;16.90;69.30
63094;DHT22;49183;51.380;0.098;2023-07-29T09:43:38;16.80;70.40
63094;DHT22;49183;51.380;0.098;2023-07-29T09:46:06;16.80;70.70
63094;DHT22;49183;51.380;0.098;2023-07-29T09:48:37;16.90;71.00
63094;DHT22;49183;51.380;0.098;2023-07-29T09:51:14;17.10;71.00
63094;DHT22;49183;51.380;0.098;2023-07-29T09:53:43;17.30;70.60
63094;DHT22;49183;51.380;0.098;2023-07-29T09:56:14;17.30;70.50
63094;DHT22;49183;51.380;0.098;2023-07-29T09:58:42;17.40;70.70
63094;DHT22;49183;51.380;0.098;2023-07-29T10:01:11;17.60;70.80
63094;DHT22;49183;51.380;0.098;2023-07-29T10:03:41;17.80;70.20
63094;DHT22;49183;51.380;0.098;2023-07-29T10:06:09;18.20;69.90
63094;DHT22;49183;51.380;0.098;2023-07-29T10:08:37;18.50;68.60
63094;DHT22;49183;51.380;0.098;2023-07-29T10:11:06;18.70;67.20
63094;DHT22;49183;51.380;0.098;2023-07-29T10:13:34;18.80;66.00
63094;DHT22;49183;51.380;0.098;2023-07-29T10:16:02;19.00;66.20
63094;DHT22;49183;51.380;0.098;2023-07-29T10:18:32;19.20;65.60
63094;DHT22;49183;51.380;0.098;2023-07-29T10:21:01;19.30;64.90
63094;DHT22;49183;51.380;0.098;2023-07-29T10:23:32;19.40;64.60
63094;DHT22;49183;51.380;0.098;2023-07-29T10:28:29;19.80;64.60
63094;DHT22;49183;51.380;0.098;2023-07-29T10:30:57;20.00;63.40
63094;DHT22;49183;51.380;0.098;2023-07-29T10:33:26;20.30;63.00
63094;DHT22;49183;51.380;0.098;2023-07-29T10:35:54;20.50;62.70
63094;DHT22;49183;51.380;0.098;2023-07-29T10:38:22;20.70;61.60
63094;DHT22;49183;51.380;0.098;2023-07-29T10:40:51;20.70;60.80
63094;DHT22;49183;51.380;0.098;2023-07-29T10:43:36;20.50;59.50
63094;DHT22;49183;51.380;0.098;2023-07-29T10:46:18;20.30;59.50
63094;DHT22;49183;51.380;0.098;2023-07-29T10:53:52;20.10;60.40
63094;DHT22;49183;51.380;0.098;2023-07-29T10:56:24;20.00;60.00
63094;DHT22;49183;51.380;0.098;2023-07-29T10:58:52;19.90;60.20
63094;DHT22;49183;51.380;0.098;2023-07-29T11:01:31;20.00;60.40
63094;DHT22;49183;51.380;0.098;2023-07-29T11:14:56;21.30;58.50
63094;DHT22;49183;51.380;0.098;2023-07-29T11:17:23;21.60;57.10
63094;DHT22;49183;51.380;0.098;2023-07-29T11:19:51;21.80;56.40
63094;DHT22;49183;51.380;0.098;2023-07-29T11:22:19;21.90;54.10
63094;DHT22;49183;51.380;0.098;2023-07-29T11:24:47;21.90;53.50
63094;DHT22;49183;51.380;0.098;2023-07-29T11:27:15;21.90;53.40
63094;DHT22;49183;51.380;0.098;2023-07-29T11:29:42;21.80;52.70
63094;DHT22;49183;51.380;0.098;2023-07-29T11:32:11;21.90;53.20
63094;DHT22;49183;51.380;0.098;2023-07-29T11:34:38;22.00;52.70
63094;DHT22;49183;51.380;0.098;2023-07-29T11:37:09;22.00;52.00
63094;DHT22;49183;51.380;0.098;2023-07-29T11:39:40;21.90;51.90
63094;DHT22;49183;51.380;0.098;2023-07-29T11:42:12;21.70;53.00
63094;DHT22;49183;51.380;0.098;2023-07-29T11:44:42;21.80;53.40
63094;DHT22;49183;51.380;0.098;2023-07-29T11:47:10;22.00;53.80
63094;DHT22;49183;51.380;0.098;2023-07-29T11:49:39;22.30;54.00
63094;DHT22;49183;51.380;0.098;2023-07-29T11:52:10;22.40;53.60
63094;DHT22;49183;51.380;0.098;2023-07-29T11:54:38;22.30;51.50
63094;DHT22;49183;51.380;0.098;2023-07-29T11:57:06;21.90;52.10
63094;DHT22;49183;51.380;0.098;2023-07-29T11:59:35;21.80;53.40
63094;DHT22;49183;51.380;0.098;2023-07-29T12:02:05;21.90;53.60
63094;DHT22;49183;51.380;0.098;2023-07-29T12:04:34;21.80;53.00
63094;DHT22;49183;51.380;0.098;2023-07-29T12:07:03;21.70;53.20
63094;DHT22;49183;51.380;0.098;2023-07-29T12:09:30;21.80;53.40
63094;DHT22;49183;51.380;0.098;2023-07-29T12:11:58;21.80;53.10
63094;DHT22;49183;51.380;0.098;2023-07-29T12:14:26;21.80;53.80
63094;DHT22;49183;51.380;0.098;2023-07-29T12:16:54;21.80;52.40
63094;DHT22;49183;51.380;0.098;2023-07-29T12:19:22;21.60;52.50
63094;DHT22;49183;51.380;0.098;2023-07-29T12:21:49;21.50;53.40
63094;DHT22;49183;51.380;0.098;2023-07-29T12:24:17;21.50;54.40
63094;DHT22;49183;51.380;0.098;2023-07-29T12:26:46;21.40;54.80
63094;DHT22;49183;51.380;0.098;2023-07-29T12:29:14;21.40;54.60
63094;DHT22;49183;51.380;0.098;2023-07-29T12:31:43;21.50;54.90
63094;DHT22;49183;51.380;0.098;2023-07-29T12:34:10;21.80;54.30
63094;DHT22;49183;51.380;0.098;2023-07-29T12:36:48;22.10;54.20
63094;DHT22;49183;51.380;0.098;2023-07-29T12:39:26;22.30;53.20
63094;DHT22;49183;51.380;0.098;2023-07-29T12:41:55;22.30;52.00
63094;DHT22;49183;51.380;0.098;2023-07-29T12:44:24;22.30;52.10
63094;DHT22;49183;51.380;0.098;2023-07-29T12:46:51;22.40;52.60
63094;DHT22;49183;51.380;0.098;2023-07-29T12:49:19;22.50;52.50
63094;DHT22;49183;51.380;0.098;2023-07-29T12:51:47;22.50;52.10
63094;DHT22;49183;51.380;0.098;2023-07-29T12:54:15;22.60;52.00
63094;DHT22;49183;51.380;0.098;2023-07-29T12:56:42;22.60;52.10
63094;DHT22;49183;51.380;0.098;2023-07-29T12:59:10;22.70;52.00
63094;DHT22;49183;51.380;0.098;2023-07-29T13:01:38;22.80;51.50
63094;DHT22;49183;51.380;0.098;2023-07-29T13:04:06;23.00;51.80
63094;DHT22;49183;51.380;0.098;2023-07-29T13:06:33;23.20;50.90
63094;DHT22;49183;51.380;0.098;2023-07-29T13:09:01;23.40;50.20
63094;DHT22;49183;51.380;0.098;2023-07-29T13:11:29;23.60;49.70
63094;DHT22;49183;51.380;0.098;2023-07-29T13:13:56;23.70;49.30
63094;DHT22;49183;51.380;0.098;2023-07-29T13:16:24;23.60;49.40
63094;DHT22;49183;51.380;0.098;2023-07-29T13:18:51;23.60;49.20
63094;DHT22;49183;51.380;0.098;2023-07-29T13:21:19;23.50;48.30
63094;DHT22;49183;51.380;0.098;2023-07-29T13:23:46;23.50;47.80
63094;DHT22;49183;51.380;0.098;2023-07-29T13:26:14;23.50;48.10
63094;DHT22;49183;51.380;0.098;2023-07-29T13:28:44;23.50;48.60
63094;DHT22;49183;51.380;0.098;2023-07-29T13:31:11;23.60;48.40
63094;DHT22;49183;51.380;0.098;2023-07-29T13:33:40;23.40;47.70
63094;DHT22;49183;51.380;0.098;2023-07-29T13:36:08;23.00;48.40
63094;DHT22;49183;51.380;0.098;2023-07-29T13:38:35;22.80;49.20
63094;DHT22;49183;51.380;0.098;2023-07-29T13:41:03;22.50;49.70
63094;DHT22;49183;51.380;0.098;2023-07-29T13:43:31;22.30;50.50
63094;DHT22;49183;51.380;0.098;2023-07-29T13:45:58;22.20;50.90
63094;DHT22;49183;51.380;0.098;2023-07-29T13:48:26;22.00;50.80
63094;DHT22;49183;51.380;0.098;2023-07-29T13:50:53;21.80;51.00
63094;DHT22;49183;51.380;0.098;2023-07-29T13:53:21;21.90;51.40
63094;DHT22;49183;51.380;0.098;2023-07-29T13:55:49;22.00;51.30
63094;DHT22;49183;51.380;0.098;2023-07-29T13:58:16;22.20;51.60
63094;DHT22;49183;51.380;0.098;2023-07-29T14:00:45;22.40;51.00
63094;DHT22;49183;51.380;0.098;2023-07-29T14:03:13;22.60;50.90
63094;DHT22;49183;51.380;0.098;2023-07-29T14:05:40;22.80;50.30
63094;DHT22;49183;51.380;0.098;2023-07-29T14:08:08;23.00;49.70
63094;DHT22;49183;51.380;0.098;2023-07-29T14:10:35;23.20;49.30
63094;DHT22;49183;51.380;0.098;2023-07-29T14:13:03;23.30;49.50
63094;DHT22;49183;51.380;0.098;2023-07-29T14:15:30;23.30;48.90
63094;DHT22;49183;51.380;0.098;2023-07-29T14:17:59;23.20;47.90
63094;DHT22;49183;51.380;0.098;2023-07-29T14:20:27;22.80;48.20
63094;DHT22;49183;51.380;0.098;2023-07-29T14:22:55;22.60;49.10
63094;DHT22;49183;51.380;0.098;2023-07-29T14:25:23;22.40;49.50
63094;DHT22;49183;51.380;0.098;2023-07-29T14:27:50;22.50;50.00
63094;DHT22;49183;51.380;0.098;2023-07-29T14:30:17;22.70;49.60
63094;DHT22;49183;51.380;0.098;2023-07-29T14:32:45;23.00;50.30
63094;DHT22;49183;51.380;0.098;2023-07-29T14:35:13;23.20;48.70
63094;DHT22;49183;51.380;0.098;2023-07-29T14:37:40;23.30;48.70
63094;DHT22;49183;51.380;0.098;2023-07-29T14:40:08;23.30;48.40
63094;DHT22;49183;51.380;0.098;2023-07-29T14:42:35;23.40;48.90
63094;DHT22;49183;51.380;0.098;2023-07-29T14:45:03;23.60;48.90
63094;DHT22;49183;51.380;0.098;2023-07-29T14:47:30;23.80;49.10
63094;DHT22;49183;51.380;0.098;2023-07-29T14:50:02;24.00;48.40
63094;DHT22;49183;51.380;0.098;2023-07-29T14:52:30;24.10;48.50
63094;DHT22;49183;51.380;0.098;2023-07-29T14:54:57;24.10;47.40
63094;DHT22;49183;51.380;0.098;2023-07-29T14:57:25;24.10;47.40
63094;DHT22;49183;51.380;0.098;2023-07-29T14:59:53;24.00;47.00
63094;DHT22;49183;51.380;0.098;2023-07-29T15:02:20;23.80;46.50
63094;DHT22;49183;51.380;0.098;2023-07-29T15:04:50;23.60;46.70
63094;DHT22;49183;51.380;0.098;2023-07-29T15:07:17;23.40;45.90
63094;DHT22;49183;51.380;0.098;2023-07-29T15:09:45;23.20;45.90
63094;DHT22;49183;51.380;0.098;2023-07-29T15:12:12;22.80;46.30
63094;DHT22;49183;51.380;0.098;2023-07-29T15:14:40;22.60;47.50
63094;DHT22;49183;51.380;0.098;2023-07-29T15:17:07;22.50;48.50
63094;DHT22;49183;51.380;0.098;2023-07-29T15:19:35;22.60;48.80
63094;DHT22;49183;51.380;0.098;2023-07-29T15:22:02;22.80;48.60
63094;DHT22;49183;51.380;0.098;2023-07-29T15:24:32;22.90;48.60
63094;DHT22;49183;51.380;0.098;2023-07-29T15:26:59;23.00;48.70
63094;DHT22;49183;51.380;0.098;2023-07-29T15:29:27;23.10;47.90
63094;DHT22;49183;51.380;0.098;2023-07-29T15:31:54;23.20;47.80
63094;DHT22;49183;51.380;0.098;2023-07-29T15:34:22;23.20;47.30
63094;DHT22;49183;51.380;0.098;2023-07-29T15:36:52;23.30;47.20
63094;DHT22;49183;51.380;0.098;2023-07-29T15:39:20;23.30;47.30
63094;DHT22;49183;51.380;0.098;2023-07-29T15:41:50;23.30;47.30
63094;DHT22;49183;51.380;0.098;2023-07-29T15:44:19;23.40;46.70
63094;DHT22;49183;51.380;0.098;2023-07-29T15:46:48;23.40;46.30
63094;DHT22;49183;51.380;0.098;2023-07-29T15:49:19;23.40;46.30
63094;DHT22;49183;51.380;0.098;2023-07-29T15:51:46;23.40;44.90
63094;DHT22;49183;51.380;0.098;2023-07-29T15:54:14;23.30;45.00
63094;DHT22;49183;51.380;0.098;2023-07-29T15:56:42;23.30;45.00
63094;DHT22;49183;51.380;0.098;2023-07-29T15:59:09;23.20;45.50
63094;DHT22;49183;51.380;0.098;2023-07-29T16:01:37;23.30;45.30
63094;DHT22;49183;51.380;0.098;2023-07-29T16:04:05;23.20;45.60
63094;DHT22;49183;51.380;0.098;2023-07-29T16:06:32;23.10;46.10
63094;DHT22;49183;51.380;0.098;2023-07-29T16:09:00;22.90;46.50
63094;DHT22;49183;51.380;0.098;2023-07-29T16:11:33;22.80;46.90
63094;DHT22;49183;51.380;0.098;2023-07-29T16:14:01;22.80;47.20
63094;DHT22;49183;51.380;0.098;2023-07-29T16:16:28;22.70;47.60
63094;DHT22;49183;51.380;0.098;2023-07-29T16:18:56;22.70;47.70
63094;DHT22;49183;51.380;0.098;2023-07-29T16:21:24;22.60;47.10